createdAt,value
2022-11-28T00:01:43.097Z,6.33
2022-11-28T00:04:11.139Z,6.35
2022-11-28T00:06:45.461Z,6.37
2022-11-28T00:09:13.808Z,6.31
2022-11-28T00:11:41.747Z,6.28
2022-11-28T00:14:08.683Z,6.32
2022-11-28T00:16:36.349Z,6.39
2022-11-28T00:19:04.863Z,6.33
2022-11-28T00:21:31.919Z,6.40
2022-11-28T00:23:59.645Z,6.33
2022-11-28T00:26:30.321Z,6.37
2022-11-28T00:28:57.507Z,6.42
2022-11-28T00:31:27.349Z,6.39
2022-11-28T00:33:54.079Z,6.40
2022-11-28T00:36:21.301Z,6.41
2022-11-28T00:38:48.497Z,6.37
2022-11-28T00:41:24.370Z,6.43
2022-11-28T00:43:51.642Z,6.52
2022-11-28T00:46:19.138Z,6.50
2022-11-28T00:48:45.977Z,6.51
2022-11-28T00:51:16.516Z,6.47
2022-11-28T00:53:44.329Z,6.41
2022-11-28T00:56:13.243Z,6.38
2022-11-28T00:58:40.883Z,6.46
2022-11-28T01:01:10.349Z,6.34
2022-11-28T01:03:37.434Z,6.44
2022-11-28T01:06:04.412Z,6.43
2022-11-28T01:08:30.858Z,6.41
2022-11-28T01:10:57.407Z,6.42
2022-11-28T01:13:24.270Z,6.36
2022-11-28T01:15:50.994Z,6.49
2022-11-28T01:18:17.558Z,6.47
2022-11-28T01:20:44.170Z,6.35
2022-11-28T01:23:10.544Z,6.34
2022-11-28T01:25:36.952Z,6.36
2022-11-28T01:28:03.857Z,6.42
2022-11-28T01:30:30.438Z,6.55
2022-11-28T01:32:56.871Z,6.42
2022-11-28T01:35:23.263Z,6.47
2022-11-28T01:37:49.656Z,6.50
2022-11-28T01:40:16.077Z,6.42
2022-11-28T01:42:42.445Z,6.40
2022-11-28T01:45:30.192Z,6.44
2022-11-28T01:48:02.579Z,6.47
2022-11-28T01:50:31.413Z,6.50
2022-11-28T01:53:01.321Z,6.49
2022-11-28T01:55:34.042Z,6.44
2022-11-28T01:58:01.383Z,6.44
2022-11-28T02:00:27.901Z,6.39
2022-11-28T02:03:12.844Z,6.50
2022-11-28T02:05:39.329Z,6.50
2022-11-28T02:08:06.179Z,6.46
2022-11-28T02:11:12.944Z,6.46
2022-11-28T02:13:48.137Z,6.45
2022-11-28T02:16:17.528Z,6.53
2022-11-28T02:19:14.389Z,6.46
2022-11-28T02:21:52.390Z,6.50
2022-11-28T02:24:41.202Z,6.48
2022-11-28T02:27:40.871Z,6.48
2022-11-28T02:30:19.452Z,6.53
2022-11-28T02:33:03.476Z,6.45
2022-11-28T02:35:49.039Z,6.50
2022-11-28T02:38:21.350Z,6.42
2022-11-28T02:40:58.136Z,6.39
2022-11-28T02:44:04.403Z,6.37
2022-11-28T02:47:12.409Z,6.40
2022-11-28T02:49:49.047Z,6.39
2022-11-28T02:52:21.065Z,6.44
2022-11-28T02:54:54.455Z,6.45
2022-11-28T02:57:21.352Z,6.37
2022-11-28T02:59:50.043Z,6.38
2022-11-28T03:02:23.784Z,6.34
2022-11-28T03:05:26.064Z,6.34
2022-11-28T03:08:02.303Z,6.32
2022-11-28T03:10:59.226Z,6.33
2022-11-28T03:13:39.154Z,6.33
2022-11-28T03:16:25.357Z,6.32
2022-11-28T03:19:23.929Z,6.31
2022-11-28T03:22:11.796Z,6.36
2022-11-28T03:24:45.812Z,6.27
2022-11-28T03:27:20.172Z,6.32
2022-11-28T03:29:52.259Z,6.29
2022-11-28T03:32:30.852Z,6.22
2022-11-28T03:35:04.968Z,6.22
2022-11-28T03:37:35.841Z,6.28
2022-11-28T03:40:07.688Z,6.20
2022-11-28T03:42:40.185Z,6.20
2022-11-28T03:45:24.206Z,6.24
2022-11-28T03:47:58.925Z,6.20
2022-11-28T03:50:33.987Z,6.24
2022-11-28T03:53:03.045Z,6.30
2022-11-28T03:55:41.940Z,6.26
2022-11-28T03:58:47.162Z,6.17
2022-11-28T04:01:28.188Z,6.20
2022-11-28T04:04:29.191Z,6.18
2022-11-28T04:07:29.912Z,6.30
2022-11-28T04:10:07.404Z,6.19
2022-11-28T04:12:55.669Z,6.22
2022-11-28T04:15:30.858Z,6.12
2022-11-28T04:18:03.208Z,6.16
2022-11-28T04:20:51.873Z,6.17
2022-11-28T04:23:20.881Z,6.15
2022-11-28T04:25:54.096Z,6.18
2022-11-28T04:28:24.874Z,6.13
2022-11-28T04:30:53.596Z,6.13
2022-11-28T04:33:24.050Z,6.16
2022-11-28T04:35:53.143Z,6.23
2022-11-28T04:38:22.857Z,6.25
2022-11-28T04:40:55.223Z,6.16
2022-11-28T04:43:27.151Z,6.17
2022-11-28T04:45:59.851Z,6.17
2022-11-28T04:48:29.932Z,6.15
2022-11-28T04:51:15.553Z,6.16
2022-11-28T04:54:18.653Z,6.18
2022-11-28T04:56:50.932Z,6.15
2022-11-28T04:59:19.351Z,6.19
2022-11-28T05:01:48.457Z,6.17
2022-11-28T05:04:17.163Z,6.17
2022-11-28T05:06:43.631Z,6.09
2022-11-28T05:09:11.974Z,6.20
2022-11-28T05:11:38.843Z,6.15
2022-11-28T05:14:05.450Z,6.19
2022-11-28T05:16:31.883Z,6.18
2022-11-28T05:18:58.354Z,6.14
2022-11-28T05:21:24.792Z,6.22
2022-11-28T05:23:51.240Z,6.15
2022-11-28T05:26:20.948Z,6.27
2022-11-28T05:28:50.012Z,6.17
2022-11-28T05:31:18.785Z,6.11
2022-11-28T05:33:45.267Z,6.16
2022-11-28T05:36:13.822Z,6.16
2022-11-28T05:38:40.883Z,6.15
2022-11-28T05:41:07.532Z,6.15
2022-11-28T05:43:34.085Z,6.17
2022-11-28T05:46:00.679Z,6.13
2022-11-28T05:48:27.114Z,6.11
2022-11-28T05:50:53.593Z,6.12
2022-11-28T05:53:20.410Z,6.08
2022-11-28T05:55:47.510Z,6.09
2022-11-28T05:58:13.935Z,6.17
2022-11-28T06:00:40.531Z,6.13
2022-11-28T06:03:07.070Z,6.13
2022-11-28T06:05:43.186Z,6.09
2022-11-28T06:08:12.948Z,6.06
2022-11-28T06:10:39.660Z,6.08
2022-11-28T06:13:06.043Z,6.11
2022-11-28T06:15:37.574Z,6.02
2022-11-28T06:18:05.151Z,6.07
2022-11-28T06:20:31.632Z,6.16
2022-11-28T06:22:57.988Z,6.09
2022-11-28T06:25:24.388Z,6.04
2022-11-28T06:27:50.819Z,6.10
2022-11-28T06:30:17.391Z,6.09
2022-11-28T06:32:43.815Z,6.05
2022-11-28T06:35:10.276Z,6.08
2022-11-28T06:37:36.707Z,6.03
2022-11-28T06:40:03.768Z,6.13
2022-11-28T06:42:30.293Z,6.17
2022-11-28T06:44:56.647Z,6.08
2022-11-28T06:47:23.108Z,6.11
2022-11-28T06:49:49.505Z,6.13
2022-11-28T06:52:15.928Z,6.09
2022-11-28T06:54:42.612Z,6.07
2022-11-28T06:57:09.035Z,6.11
2022-11-28T06:59:35.479Z,6.16
2022-11-28T07:02:07.577Z,6.16
2022-11-28T07:04:34.542Z,6.10
2022-11-28T07:07:00.973Z,6.18
2022-11-28T07:09:27.410Z,6.16
2022-11-28T07:11:53.830Z,6.15
2022-11-28T07:14:20.264Z,6.13
2022-11-28T07:16:49.052Z,6.19
2022-11-28T07:19:16.172Z,6.17
2022-11-28T07:21:42.717Z,6.31
2022-11-28T07:24:09.248Z,6.16
2022-11-28T07:26:38.027Z,6.21
2022-11-28T07:29:06.877Z,6.22
2022-11-28T07:31:33.825Z,6.25
2022-11-28T07:34:03.406Z,6.19
2022-11-28T07:36:30.500Z,6.23
2022-11-28T07:38:59.541Z,6.20
2022-11-28T07:41:27.442Z,6.20
2022-11-28T07:43:56.760Z,6.28
2022-11-28T07:46:24.344Z,6.33
2022-11-28T07:48:50.839Z,6.33
2022-11-28T07:51:20.603Z,6.33
2022-11-28T07:53:47.834Z,6.31
2022-11-28T07:56:22.861Z,6.34
2022-11-28T07:58:49.767Z,6.34
2022-11-28T08:01:22.262Z,6.32
2022-11-28T08:03:49.286Z,6.29
2022-11-28T08:06:18.677Z,6.35
2022-11-28T08:08:47.093Z,6.37
2022-11-28T08:11:15.245Z,6.38
2022-11-28T08:13:42.333Z,6.36
2022-11-28T08:16:14.835Z,6.43
2022-11-28T08:18:41.621Z,6.43
2022-11-28T08:21:29.487Z,6.39
2022-11-28T08:23:59.252Z,6.45
2022-11-28T08:26:30.355Z,6.45
2022-11-28T08:28:58.474Z,6.51
2022-11-28T08:31:28.210Z,6.53
2022-11-28T08:33:56.467Z,6.38
2022-11-28T08:36:23.316Z,6.42
2022-11-28T08:39:03.379Z,6.47
2022-11-28T08:41:36.844Z,6.49
2022-11-28T08:44:03.330Z,6.41
2022-11-28T08:46:30.522Z,6.40
2022-11-28T08:48:57.082Z,6.40
2022-11-28T08:51:23.992Z,6.48
2022-11-28T08:53:54.924Z,6.50
2022-11-28T08:56:24.739Z,6.50
2022-11-28T08:58:51.225Z,6.50
2022-11-28T09:01:23.555Z,6.51
2022-11-28T09:03:50.589Z,6.50
2022-11-28T09:06:18.051Z,6.44
2022-11-28T09:08:45.355Z,6.48
2022-11-28T09:11:14.958Z,6.50
2022-11-28T09:13:41.750Z,6.49
2022-11-28T09:16:08.727Z,6.51
2022-11-28T09:18:35.635Z,6.52
2022-11-28T09:21:09.212Z,6.62
2022-11-28T09:23:37.143Z,6.55
2022-11-28T09:26:08.961Z,6.61
2022-11-28T09:28:35.413Z,6.55
2022-11-28T09:31:04.247Z,6.54
2022-11-28T09:33:31.098Z,6.61
2022-11-28T09:35:58.370Z,6.59
2022-11-28T09:38:27.855Z,6.60
2022-11-28T09:40:54.278Z,6.62
2022-11-28T09:43:31.319Z,6.67
2022-11-28T09:46:00.267Z,6.68
2022-11-28T09:48:35.285Z,6.65
2022-11-28T09:51:23.404Z,6.66
2022-11-28T09:54:10.108Z,6.77
2022-11-28T09:56:36.659Z,6.80
2022-11-28T09:59:04.310Z,6.74
2022-11-28T10:01:44.299Z,6.81
2022-11-28T10:04:23.097Z,6.73
2022-11-28T10:07:02.746Z,6.73
2022-11-28T10:09:47.567Z,6.80
2022-11-28T10:12:35.966Z,6.70
2022-11-28T10:15:12.722Z,6.67
2022-11-28T10:17:39.087Z,6.71
2022-11-28T10:20:18.617Z,6.74
2022-11-28T10:22:57.508Z,6.82
2022-11-28T10:25:32.838Z,6.75
2022-11-28T10:27:59.318Z,6.76
2022-11-28T10:30:29.179Z,6.82
2022-11-28T10:33:03.905Z,6.83
2022-11-28T10:35:51.584Z,6.81
2022-11-28T10:38:20.905Z,6.81
2022-11-28T10:40:58.900Z,6.81
2022-11-28T10:43:38.108Z,6.82
2022-11-28T10:46:31.255Z,6.91
2022-11-28T10:49:20.008Z,6.99
2022-11-28T10:52:01.436Z,6.88
2022-11-28T10:54:52.634Z,7.00
2022-11-28T10:57:39.596Z,6.88
2022-11-28T11:00:20.338Z,6.86
2022-11-28T11:02:57.042Z,6.92
2022-11-28T11:05:30.326Z,6.86
2022-11-28T11:08:05.201Z,6.88
2022-11-28T11:10:50.777Z,6.81
2022-11-28T11:13:23.540Z,6.82
2022-11-28T11:15:58.560Z,6.83
2022-11-28T11:18:28.493Z,6.88
2022-11-28T11:21:20.849Z,6.96
2022-11-28T11:23:48.776Z,6.90
2022-11-28T11:26:37.819Z,6.91
2022-11-28T11:29:05.539Z,6.88
2022-11-28T11:31:42.568Z,6.86
2022-11-28T11:34:20.721Z,6.88
2022-11-28T11:36:47.388Z,6.89
2022-11-28T11:39:13.724Z,6.92
2022-11-28T11:41:42.553Z,6.93
2022-11-28T11:44:14.813Z,6.94
2022-11-28T11:46:58.106Z,6.95
2022-11-28T11:49:32.267Z,6.94
2022-11-28T11:52:04.448Z,6.94
2022-11-28T11:54:31.227Z,6.94
2022-11-28T11:57:24.927Z,6.94
2022-11-28T11:59:50.781Z,6.88
2022-11-28T12:02:20.133Z,6.80
2022-11-28T12:04:55.481Z,6.86
2022-11-28T12:07:29.895Z,6.80
2022-11-28T12:10:03.051Z,6.78
2022-11-28T12:12:34.211Z,6.78
2022-11-28T12:15:00.607Z,6.84
2022-11-28T12:17:58.318Z,6.86
2022-11-28T12:20:28.436Z,6.80
2022-11-28T12:23:03.081Z,6.81
2022-11-28T12:25:55.960Z,6.87
2022-11-28T12:28:40.433Z,6.78
2022-11-28T12:31:14.463Z,6.81
2022-11-28T12:33:46.920Z,6.82
2022-11-28T12:36:38.487Z,6.74
2022-11-28T12:39:29.389Z,6.77
2022-11-28T12:42:37.981Z,6.82
2022-11-28T12:45:20.179Z,6.87
2022-11-28T12:48:11.227Z,6.82
2022-11-28T12:50:40.439Z,6.87
2022-11-28T12:53:25.060Z,6.89
2022-11-28T12:56:33.508Z,6.95
2022-11-28T12:59:05.611Z,6.96
2022-11-28T13:01:50.457Z,6.96
2022-11-28T13:04:25.923Z,7.00
2022-11-28T13:07:07.633Z,6.95
2022-11-28T13:09:53.102Z,6.95
2022-11-28T13:12:19.489Z,6.92
2022-11-28T13:14:57.538Z,6.87
2022-11-28T13:17:44.366Z,6.91
2022-11-28T13:20:24.363Z,6.94
2022-11-28T13:23:20.630Z,7.01
2022-11-28T13:25:54.672Z,6.98
2022-11-28T13:28:33.740Z,6.92
2022-11-28T13:31:09.830Z,6.93
2022-11-28T13:33:50.405Z,6.92
2022-11-28T13:39:40.160Z,6.95
2022-11-28T13:42:43.845Z,6.91
2022-11-28T13:45:01.691Z,6.97
2022-11-28T13:47:31.805Z,6.99
2022-11-28T13:50:23.025Z,7.00
2022-11-28T13:53:08.093Z,6.98
2022-11-28T13:55:46.953Z,6.98
2022-11-28T13:58:18.873Z,7.02
2022-11-28T14:01:14.454Z,7.07
2022-11-28T14:04:00.319Z,7.11
2022-11-28T14:06:40.936Z,7.12
2022-11-28T14:09:08.789Z,7.16
2022-11-28T14:11:59.827Z,7.14
2022-11-28T14:14:52.868Z,7.26
2022-11-28T14:17:22.465Z,7.23
2022-11-28T14:20:13.739Z,7.21
2022-11-28T14:22:58.948Z,7.18
2022-11-28T14:25:39.261Z,7.19
2022-11-28T14:28:16.560Z,7.25
2022-11-28T14:30:45.677Z,7.16
2022-11-28T14:33:32.760Z,7.28
2022-11-28T14:36:12.538Z,7.28
2022-11-28T14:38:38.852Z,7.29
2022-11-28T14:41:09.084Z,7.29
2022-11-28T14:43:40.304Z,7.30
2022-11-28T14:46:19.396Z,7.28
2022-11-28T14:48:58.234Z,7.31
2022-11-28T14:51:49.523Z,7.26
2022-11-28T14:54:25.056Z,7.29
2022-11-28T14:56:58.194Z,7.30
2022-11-28T14:59:31.394Z,7.30
2022-11-28T15:02:12.846Z,7.30
2022-11-28T15:04:59.445Z,7.28
2022-11-28T15:07:47.325Z,7.27
2022-11-28T15:10:36.517Z,7.29
2022-11-28T15:13:15.586Z,7.30
2022-11-28T15:15:49.546Z,7.28
2022-11-28T15:18:18.924Z,7.27
2022-11-28T15:20:55.306Z,7.29
2022-11-28T15:23:30.145Z,7.28
2022-11-28T15:25:58.842Z,7.29
2022-11-28T15:28:28.355Z,7.30
2022-11-28T15:30:57.263Z,7.28
2022-11-28T15:33:25.880Z,7.27
2022-11-28T15:35:58.329Z,7.27
2022-11-28T15:38:26.625Z,7.29
2022-11-28T15:40:55.034Z,7.28
2022-11-28T15:43:22.285Z,7.29
2022-11-28T15:45:50.983Z,7.34
2022-11-28T15:48:36.140Z,7.33
2022-11-28T15:51:06.872Z,7.32
2022-11-28T15:53:33.432Z,7.33
2022-11-28T15:56:11.368Z,7.30
2022-11-28T15:58:38.351Z,7.33
2022-11-28T16:01:22.210Z,7.37
2022-11-28T16:04:03.896Z,7.32
2022-11-28T16:06:34.069Z,7.32
2022-11-28T16:09:25.904Z,7.31
2022-11-28T16:11:54.020Z,7.33
2022-11-28T16:14:42.560Z,7.35
2022-11-28T16:17:18.965Z,7.34
2022-11-28T16:19:45.877Z,7.40
2022-11-28T16:22:19.475Z,7.39
2022-11-28T16:24:47.611Z,7.40
2022-11-28T16:27:45.565Z,7.42
2022-11-28T16:30:25.992Z,7.42
2022-11-28T16:32:55.372Z,7.42
2022-11-28T16:35:40.460Z,7.43
2022-11-28T16:38:23.581Z,7.44
2022-11-28T16:40:51.929Z,7.44
2022-11-28T16:43:47.633Z,7.50
2022-11-28T16:46:20.993Z,7.45
2022-11-28T16:48:58.789Z,7.45
2022-11-28T16:51:29.716Z,7.45
2022-11-28T16:53:59.473Z,7.47
2022-11-28T16:56:25.844Z,7.46
2022-11-28T16:58:58.758Z,7.49
2022-11-28T17:01:25.800Z,7.47
2022-11-28T17:03:53.037Z,7.50
2022-11-28T17:06:26.809Z,7.49
2022-11-28T17:08:53.201Z,7.49
2022-11-28T17:11:22.934Z,7.54
2022-11-28T17:13:49.873Z,7.54
2022-11-28T17:16:22.362Z,7.54
2022-11-28T17:18:49.349Z,7.55
2022-11-28T17:21:18.855Z,7.57
2022-11-28T17:23:45.549Z,7.57
2022-11-28T17:26:11.962Z,7.57
2022-11-28T17:28:38.533Z,7.59
2022-11-28T17:31:05.004Z,7.59
2022-11-28T17:33:31.428Z,7.63
2022-11-28T17:35:59.748Z,7.64
2022-11-28T17:38:26.308Z,7.61
2022-11-28T17:40:52.727Z,7.66
2022-11-28T17:43:21.518Z,7.69
2022-11-28T17:45:48.802Z,7.67
2022-11-28T17:48:16.254Z,7.67
2022-11-28T17:50:44.432Z,7.66
2022-11-28T17:53:12.366Z,7.67
2022-11-28T17:55:40.949Z,7.65
2022-11-28T17:58:19.895Z,7.67
2022-11-28T18:00:47.636Z,7.66
2022-11-28T18:03:14.701Z,7.64
2022-11-28T18:05:46.937Z,7.65
2022-11-28T18:08:21.921Z,7.67
2022-11-28T18:10:49.420Z,7.65
2022-11-28T18:13:17.452Z,7.69
2022-11-28T18:15:45.956Z,7.67
2022-11-28T18:18:12.397Z,7.65
2022-11-28T18:20:38.823Z,7.64
2022-11-28T18:23:05.378Z,7.63
2022-11-28T18:25:31.905Z,7.65
2022-11-28T18:27:58.331Z,7.64
2022-11-28T18:30:24.749Z,7.64
2022-11-28T18:32:51.240Z,7.65
2022-11-28T18:35:19.360Z,7.65
2022-11-28T18:37:45.947Z,7.65
2022-11-28T18:40:13.089Z,7.65
2022-11-28T18:42:40.048Z,7.65
2022-11-28T18:45:07.153Z,7.62
2022-11-28T18:47:35.632Z,7.64
2022-11-28T18:50:02.058Z,7.64
2022-11-28T18:52:28.396Z,7.65
2022-11-28T18:54:54.836Z,7.67
2022-11-28T18:57:21.314Z,7.67
2022-11-28T18:59:54.414Z,7.67
2022-11-28T19:02:21.382Z,7.68
2022-11-28T19:04:47.776Z,7.68
2022-11-28T19:07:14.304Z,7.69
2022-11-28T19:09:41.074Z,7.71
2022-11-28T19:12:08.064Z,7.73
2022-11-28T19:14:34.486Z,7.72
2022-11-28T19:17:02.327Z,7.77
2022-11-28T19:19:28.844Z,7.77
2022-11-28T19:21:55.968Z,7.76
2022-11-28T19:24:22.602Z,7.76
2022-11-28T19:26:49.053Z,7.77
2022-11-28T19:29:15.620Z,7.78
2022-11-28T19:31:42.230Z,7.82
2022-11-28T19:34:12.761Z,7.79
2022-11-28T19:36:41.685Z,7.78
2022-11-28T19:39:25.333Z,7.77
2022-11-28T19:41:53.290Z,7.78
2022-11-28T19:44:21.824Z,7.81
2022-11-28T19:46:48.312Z,7.81
2022-11-28T19:49:20.638Z,7.80
2022-11-28T19:51:48.077Z,7.80
2022-11-28T19:54:15.561Z,7.81
2022-11-28T19:56:42.140Z,7.81
2022-11-28T19:59:08.587Z,7.87
2022-11-28T20:01:35.101Z,7.85
2022-11-28T20:04:01.523Z,7.85
2022-11-28T20:06:31.152Z,7.86
2022-11-28T20:09:04.079Z,7.87
2022-11-28T20:11:33.267Z,7.89
2022-11-28T20:14:08.272Z,7.90
2022-11-28T20:16:36.129Z,7.88
2022-11-28T20:19:03.164Z,7.91
2022-11-28T20:21:30.723Z,7.90
2022-11-28T20:24:04.230Z,7.91
2022-11-28T20:26:34.245Z,7.93
2022-11-28T20:29:00.618Z,7.92
2022-11-28T20:31:35.872Z,7.92
2022-11-28T20:34:03.078Z,7.92
2022-11-28T20:36:31.724Z,7.93
2022-11-28T20:38:59.130Z,7.94
2022-11-28T20:41:27.073Z,7.93
2022-11-28T20:43:53.868Z,7.93
2022-11-28T20:46:22.979Z,7.95
2022-11-28T20:48:49.987Z,7.95
2022-11-28T20:51:21.921Z,7.94
2022-11-28T20:53:48.877Z,7.95
2022-11-28T20:56:18.542Z,7.95
2022-11-28T20:58:45.512Z,7.94
2022-11-28T21:01:35.438Z,7.95
2022-11-28T21:04:03.916Z,7.93
2022-11-28T21:06:30.522Z,7.95
2022-11-28T21:08:57.784Z,7.95
2022-11-28T21:11:50.067Z,7.94
2022-11-28T21:14:12.009Z,7.94
2022-11-28T21:16:38.441Z,7.93
2022-11-28T21:19:08.884Z,7.92
2022-11-28T21:21:37.537Z,7.93
2022-11-28T21:24:10.766Z,7.92
2022-11-28T21:26:41.575Z,7.92
2022-11-28T21:29:11.459Z,7.93
2022-11-28T21:31:41.935Z,7.93
2022-11-28T21:34:14.045Z,7.92
2022-11-28T21:36:40.457Z,7.93
2022-11-28T21:39:06.945Z,7.91
2022-11-28T21:41:33.434Z,7.91
2022-11-28T21:44:00.565Z,7.90
2022-11-28T21:46:28.012Z,7.87
2022-11-28T21:48:54.563Z,7.87
2022-11-28T21:51:23.444Z,7.87
2022-11-28T21:53:50.191Z,7.86
2022-11-28T21:56:17.086Z,7.87
2022-11-28T21:58:44.183Z,7.86
2022-11-28T22:01:13.525Z,7.89
2022-11-28T22:03:41.587Z,7.87
2022-11-28T22:06:22.287Z,7.90
2022-11-28T22:08:49.071Z,7.92
2022-11-28T22:11:16.434Z,7.92
2022-11-28T22:13:45.230Z,7.92
2022-11-28T22:16:16.681Z,7.92
2022-11-28T22:18:43.496Z,7.93
2022-11-28T22:21:49.327Z,7.93
2022-11-28T22:23:57.138Z,7.92
2022-11-28T22:26:23.697Z,7.91
2022-11-28T22:28:53.926Z,7.91
2022-11-28T22:31:21.077Z,7.89
2022-11-28T22:33:49.484Z,7.90
2022-11-28T22:36:18.949Z,7.90
2022-11-28T22:38:47.058Z,7.93
2022-11-28T22:41:26.351Z,7.91
2022-11-28T22:43:56.885Z,7.89
2022-11-28T22:46:23.351Z,7.87
2022-11-28T22:48:50.618Z,7.85
2022-11-28T22:51:20.134Z,7.86
2022-11-28T22:53:46.563Z,7.84
2022-11-28T22:56:14.943Z,7.87
2022-11-28T22:58:44.365Z,7.87
2022-11-28T23:01:17.167Z,7.88
2022-11-28T23:03:44.627Z,7.87
2022-11-28T23:06:16.792Z,7.88
2022-11-28T23:08:43.330Z,7.89
2022-11-28T23:11:13.318Z,7.91
2022-11-28T23:13:40.140Z,7.92
2022-11-28T23:16:19.485Z,7.93
2022-11-28T23:18:48.612Z,7.91
2022-11-28T23:21:16.084Z,7.93
2022-11-28T23:23:44.062Z,7.93
2022-11-28T23:26:14.936Z,7.91
2022-11-28T23:28:41.676Z,7.91
2022-11-28T23:31:09.171Z,7.91
2022-11-28T23:33:36.177Z,7.88
2022-11-28T23:36:16.164Z,7.89
2022-11-28T23:38:43.892Z,7.88
2022-11-28T23:41:11.014Z,7.87
2022-11-28T23:43:37.741Z,7.89
2022-11-28T23:46:04.696Z,7.89
2022-11-28T23:48:31.614Z,7.90
2022-11-28T23:50:58.064Z,7.91
2022-11-28T23:53:24.947Z,7.91
2022-11-28T23:55:51.493Z,7.90
2022-11-28T23:58:18.377Z,7.93
